首页
METAR-TAF:

METAR-TAF

机场 :

开普敦国际机场

開普敦, 南非共和國

纬度: 33-59S, 经度: 018-36E, 海拔: 42米

当前天气观测

该预报发布于15分钟前的17:00 UTC
风速13节,风向西南
温度 25°C
湿度 61%
气压 1010 hPa
能见度10公里或以上
1500米以下无云,无积雨云

METAR: FACT 161700Z 23013KT CAVOK 25/17 Q1010 NOSIG

时间: 19:15 (17:15 UTC)

预报

该预报发布于7小时和15分钟前的10:00 UTC
预报有效从16日的 12点(UTC)到 17日的 18点(UTC)
风速15节,风向
能见度10公里或以上
1500米以下无云,无积雨云
成为
从 17日的 00点(UTC)到 17日的 02点(UTC)
风速3节,风向多变
从 17日的 0400点(UTC)
风速5节,风向
能见度10公里或以上
少量云层高于1000英尺
几率 30% :
短暂存在
从 17日的 04点(UTC)到 17日的 06点(UTC)
多云层高于1000英尺
从 17日的 0800点(UTC)
风速10节,风向西转西北
能见度10公里或以上
1500米以下无云,无积雨云
成为
从 17日的 15点(UTC)到 17日的 17点(UTC)
风速10节,风向西转西南

TAF: FACT 161000Z 1612/1718 17015KT CAVOK TX31/1612Z TN16/1704Z BECMG 1700/1702 VRB03KT FM170400 36005KT 9999 FEW010 PROB30 TEMPO 1704/1706 BKN010 FM170800 30010KT CAVOK BECMG 1715/1717 24010KT

超过4000个机场的气象观测和天气预报(METAR&TAF报告)。

可查询的气象台以黄色和红色小点在地图上表示。

将鼠标移到小点上方,可查看气象台名称。

然后点击查看天气观测和预报。

如需切换地图:点击带黑十字的绿色按钮放大地图;点击带横线的绿色按钮缩小地图;或者点击绿色箭头查看邻近地区的地图。


METAR-TAF: